createdAt,value
2018-12-13T00:04:59.163Z,8.20
2018-12-13T00:10:02.263Z,8.47
2018-12-13T00:15:05.704Z,8.27
2018-12-13T00:20:08.848Z,8.57
2018-12-13T00:25:11.910Z,8.20
2018-12-13T00:30:14.970Z,8.47
2018-12-13T00:35:18.031Z,8.07
2018-12-13T00:40:21.111Z,8.77
2018-12-13T00:45:24.263Z,8.40
2018-12-13T00:50:27.324Z,8.63
2018-12-13T00:55:30.423Z,7.77
2018-12-13T01:00:33.508Z,7.83
2018-12-13T01:05:36.574Z,8.27
2018-12-13T01:10:39.661Z,8.57
2018-12-13T01:15:42.775Z,8.85
2018-12-13T01:20:45.888Z,7.80
2018-12-13T01:25:48.966Z,8.87
2018-12-13T01:30:52.064Z,7.90
2018-12-13T01:35:55.144Z,8.07
2018-12-13T01:40:58.196Z,8.43
2018-12-13T01:46:01.355Z,8.30
2018-12-13T01:51:04.512Z,8.27
2018-12-13T01:56:07.599Z,8.20
2018-12-13T02:01:10.671Z,8.20
2018-12-13T02:06:13.729Z,9.20
2018-12-13T02:11:16.835Z,9.38
2018-12-13T02:16:19.994Z,9.80
2018-12-13T02:21:23.071Z,9.13
2018-12-13T02:26:26.151Z,9.43
2018-12-13T02:31:29.333Z,9.77
2018-12-13T02:36:32.406Z,10.23
2018-12-13T02:41:35.504Z,9.17
2018-12-13T02:46:38.597Z,8.93
2018-12-13T02:51:41.751Z,8.50
2018-12-13T02:56:44.826Z,10.30
2018-12-13T03:01:47.904Z,9.40
2018-12-13T03:06:50.981Z,10.10
2018-12-13T03:11:54.058Z,10.47
2018-12-13T03:16:57.177Z,10.07
2018-12-13T03:22:00.261Z,10.00
2018-12-13T03:27:03.517Z,9.50
2018-12-13T03:32:06.589Z,10.20
2018-12-13T03:37:09.748Z,10.47
2018-12-13T03:42:12.825Z,10.10
2018-12-13T03:47:15.936Z,10.10
2018-12-13T03:52:19.027Z,9.70
2018-12-13T03:57:22.186Z,9.93
2018-12-13T04:02:25.308Z,10.13
2018-12-13T04:07:28.446Z,9.60
2018-12-13T04:12:31.534Z,9.27
2018-12-13T04:17:34.733Z,9.35
2018-12-13T04:22:37.910Z,10.37
2018-12-13T04:27:40.983Z,9.47
2018-12-13T04:32:44.071Z,10.73
2018-12-13T04:37:47.177Z,9.90
2018-12-13T04:42:50.280Z,10.40
2018-12-13T04:47:53.373Z,10.20
2018-12-13T04:52:56.552Z,10.10
2018-12-13T04:57:59.646Z,10.43
2018-12-13T05:03:02.766Z,9.98
2018-12-13T05:08:05.894Z,8.97
2018-12-13T05:13:08.984Z,9.70
2018-12-13T05:18:12.111Z,9.50
2018-12-13T05:23:15.235Z,9.57
2018-12-13T05:28:18.324Z,9.23
2018-12-13T05:33:21.420Z,9.00
2018-12-13T05:38:24.590Z,8.83
2018-12-13T05:43:27.664Z,7.77
2018-12-13T05:48:30.747Z,8.90
2018-12-13T05:53:33.828Z,7.72
2018-12-13T05:58:36.908Z,7.35
2018-12-13T06:03:40.013Z,6.93
2018-12-13T06:08:43.078Z,7.13
2018-12-13T06:13:46.156Z,6.90
2018-12-13T06:18:49.290Z,7.43
2018-12-13T06:23:52.400Z,8.23
2018-12-13T06:28:55.475Z,8.83
2018-12-13T06:33:58.575Z,8.33
2018-12-13T06:39:01.655Z,8.40
2018-12-13T06:44:04.849Z,7.97
2018-12-13T06:49:07.979Z,8.97
2018-12-13T06:54:11.069Z,10.15
2018-12-13T06:59:14.256Z,10.30
2018-12-13T07:04:17.316Z,10.63
2018-12-13T07:09:20.395Z,9.60
2018-12-13T07:14:23.503Z,8.20
2018-12-13T07:19:26.588Z,8.27
2018-12-13T07:24:29.673Z,8.67
2018-12-13T07:29:32.819Z,9.33
2018-12-13T07:34:35.921Z,8.33
2018-12-13T07:39:39.029Z,8.43
2018-12-13T07:44:42.176Z,9.33
2018-12-13T07:49:46.422Z,9.50
2018-12-13T07:54:49.504Z,9.13
2018-12-13T07:59:52.593Z,9.47
2018-12-13T08:04:55.788Z,9.48
2018-12-13T08:09:58.898Z,9.68
2018-12-13T08:15:01.990Z,8.60
2018-12-13T08:20:06.287Z,8.73
2018-12-13T08:25:09.363Z,9.20
2018-12-13T08:30:12.499Z,9.70
2018-12-13T08:35:15.583Z,9.00
2018-12-13T08:40:18.715Z,10.03
2018-12-13T08:45:21.818Z,9.80
2018-12-13T08:50:24.932Z,9.27
2018-12-13T08:55:28.011Z,9.10
2018-12-13T09:00:31.116Z,8.93
2018-12-13T09:05:34.191Z,9.20
2018-12-13T09:10:37.279Z,9.27
2018-12-13T09:15:40.371Z,8.37
2018-12-13T09:20:43.452Z,8.80
2018-12-13T09:25:46.527Z,8.70
2018-12-13T09:30:50.076Z,9.00
2018-12-13T09:35:53.169Z,8.63
2018-12-13T09:40:56.251Z,9.20
2018-12-13T09:45:59.367Z,9.63
2018-12-13T09:51:02.445Z,9.10
2018-12-13T09:56:05.577Z,8.23
2018-12-13T10:01:08.647Z,8.43
2018-12-13T10:06:11.723Z,8.00
2018-12-13T10:11:14.803Z,8.18
2018-12-13T10:16:17.936Z,8.18
2018-12-13T10:21:21.023Z,8.70
2018-12-13T10:26:24.185Z,8.63
2018-12-13T10:31:27.302Z,8.40
2018-12-13T10:36:30.464Z,8.43
2018-12-13T10:41:33.615Z,8.87
2018-12-13T10:46:36.752Z,9.50
2018-12-13T10:51:39.827Z,9.63
2018-12-13T10:56:42.918Z,9.23
2018-12-13T11:01:47.951Z,9.33
2018-12-13T11:06:51.027Z,8.63
2018-12-13T11:11:54.120Z,9.27
2018-12-13T11:16:57.316Z,8.50
2018-12-13T11:22:00.432Z,9.43
2018-12-13T11:27:21.539Z,8.83
2018-12-13T11:32:24.647Z,8.60
2018-12-13T11:37:27.727Z,8.87
2018-12-13T11:42:30.870Z,8.40
2018-12-13T11:47:34.080Z,7.93
2018-12-13T11:52:37.152Z,7.67
2018-12-13T11:57:40.299Z,8.23
2018-12-13T12:02:43.389Z,7.83
2018-12-13T12:07:46.536Z,8.27
2018-12-13T12:12:49.618Z,7.83
2018-12-13T12:17:52.724Z,8.47
2018-12-13T12:22:55.860Z,8.10
2018-12-13T12:27:58.976Z,8.10
2018-12-13T12:33:02.074Z,7.70
2018-12-13T12:38:05.143Z,8.40
2018-12-13T12:43:08.223Z,8.10
2018-12-13T12:48:11.310Z,8.10
2018-12-13T12:53:14.395Z,8.70
2018-12-13T12:58:19.535Z,7.30
2018-12-13T13:03:22.612Z,7.77
2018-12-13T13:08:25.692Z,7.97
2018-12-13T13:13:28.854Z,7.90
2018-12-13T13:18:32.002Z,7.77
2018-12-13T13:23:35.168Z,7.63
2018-12-13T13:28:38.281Z,7.53
2018-12-13T13:33:41.366Z,7.37
2018-12-13T13:38:44.481Z,7.80
2018-12-13T13:43:47.563Z,7.27
2018-12-13T13:48:50.830Z,7.10
2018-12-13T13:53:53.939Z,7.10
2018-12-13T13:58:57.017Z,6.73
2018-12-13T14:04:00.103Z,6.60
2018-12-13T14:09:05.167Z,6.80
2018-12-13T14:14:08.317Z,7.23
2018-12-13T14:19:11.400Z,7.53
2018-12-13T14:24:14.507Z,7.13
2018-12-13T14:29:17.594Z,7.10
2018-12-13T14:34:20.692Z,7.03
2018-12-13T14:39:23.894Z,7.17
2018-12-13T14:44:26.986Z,6.27
2018-12-13T14:49:30.063Z,6.50
2018-12-13T14:54:33.151Z,6.80
2018-12-13T14:59:36.263Z,6.77
2018-12-13T15:04:39.356Z,6.40
2018-12-13T15:09:42.538Z,6.13
2018-12-13T15:14:46.570Z,6.00
2018-12-13T15:19:49.652Z,6.47
2018-12-13T15:24:52.726Z,6.00
2018-12-13T15:29:55.813Z,6.73
2018-12-13T15:34:58.928Z,6.93
2018-12-13T15:40:02.015Z,5.97
2018-12-13T15:45:06.943Z,6.90
2018-12-13T15:50:10.087Z,6.80
2018-12-13T15:55:13.275Z,6.47
2018-12-13T16:00:16.805Z,6.13
2018-12-13T16:05:19.891Z,7.27
2018-12-13T16:10:22.980Z,7.43
2018-12-13T16:15:26.077Z,8.20
2018-12-13T16:20:29.171Z,8.57
2018-12-13T16:25:32.318Z,8.30
2018-12-13T16:30:35.432Z,7.83
2018-12-13T16:35:38.658Z,8.60
2018-12-13T16:40:41.855Z,8.50
2018-12-13T16:45:45.163Z,7.70
2018-12-13T16:50:48.268Z,7.70
2018-12-13T16:55:52.253Z,7.70
2018-12-13T17:00:55.585Z,5.97
2018-12-13T17:05:58.872Z,6.43
2018-12-13T17:11:03.837Z,6.40
2018-12-13T17:16:07.087Z,7.10
2018-12-13T17:21:10.214Z,6.70
2018-12-13T17:26:13.347Z,6.10
2018-12-13T17:31:19.012Z,6.80
2018-12-13T17:36:22.260Z,6.70
2018-12-13T17:41:25.382Z,7.40
2018-12-13T17:46:28.480Z,7.20
2018-12-13T17:51:31.680Z,7.40
2018-12-13T17:56:34.779Z,7.23
2018-12-13T18:01:37.923Z,7.07
2018-12-13T18:06:41.038Z,7.20
2018-12-13T18:11:44.238Z,7.43
2018-12-13T18:16:47.359Z,7.37
2018-12-13T18:21:51.175Z,8.08
2018-12-13T18:26:54.296Z,7.77
2018-12-13T18:31:57.451Z,7.97
2018-12-13T18:37:00.656Z,8.27
2018-12-13T18:42:04.131Z,9.33
2018-12-13T18:47:07.748Z,9.87
2018-12-13T18:52:10.904Z,10.17
2018-12-13T18:57:14.035Z,9.63
2018-12-13T19:02:17.197Z,8.80
2018-12-13T19:07:20.368Z,9.97
2018-12-13T19:12:23.485Z,9.13
2018-12-13T19:17:26.615Z,10.33
2018-12-13T19:22:29.781Z,9.50
2018-12-13T19:27:33.028Z,9.03
2018-12-13T19:32:36.386Z,9.10
2018-12-13T19:37:43.277Z,8.53
2018-12-13T19:42:46.432Z,9.17
2018-12-13T19:47:49.589Z,7.83
2018-12-13T19:52:52.729Z,8.33
2018-12-13T19:57:55.864Z,8.03
2018-12-13T20:02:59.006Z,8.83
2018-12-13T20:08:02.417Z,7.47
2018-12-13T20:13:05.576Z,8.23
2018-12-13T20:18:08.707Z,8.23
2018-12-13T20:23:11.855Z,7.87
2018-12-13T20:28:15.015Z,8.80
2018-12-13T20:33:18.242Z,7.67
2018-12-13T20:38:21.458Z,6.87
2018-12-13T20:43:24.606Z,7.33
2018-12-13T20:48:27.762Z,7.17
2018-12-13T20:53:30.941Z,6.87
2018-12-13T20:58:34.095Z,6.70
2018-12-13T21:03:37.215Z,6.73
2018-12-13T21:08:40.325Z,6.63
2018-12-13T21:13:43.412Z,6.83
2018-12-13T21:18:46.547Z,6.43
2018-12-13T21:23:49.760Z,6.75
2018-12-13T21:28:52.851Z,6.37
2018-12-13T21:33:55.959Z,7.03
2018-12-13T21:38:59.040Z,7.10
2018-12-13T21:44:02.131Z,7.07
2018-12-13T21:49:05.259Z,7.27
2018-12-13T21:54:08.364Z,6.83
2018-12-13T21:59:11.451Z,7.00
2018-12-13T22:04:14.531Z,7.03
2018-12-13T22:09:17.615Z,6.80
2018-12-13T22:14:20.867Z,6.80
2018-12-13T22:19:23.934Z,7.17
2018-12-13T22:24:27.010Z,7.13
2018-12-13T22:29:30.122Z,7.27
2018-12-13T22:34:33.461Z,7.50
2018-12-13T22:39:36.548Z,8.23
2018-12-13T22:44:39.617Z,6.80
2018-12-13T22:49:42.741Z,7.80
2018-12-13T22:54:45.827Z,7.42
2018-12-13T22:59:48.909Z,7.27
2018-12-13T23:04:52.077Z,7.97
2018-12-13T23:09:55.190Z,8.17
2018-12-13T23:14:58.716Z,7.50
2018-12-13T23:20:01.791Z,7.50
2018-12-13T23:25:04.970Z,7.83
2018-12-13T23:30:09.387Z,7.60
2018-12-13T23:35:12.543Z,7.95
2018-12-13T23:40:15.650Z,7.30
2018-12-13T23:45:18.793Z,8.60
2018-12-13T23:50:21.912Z,8.27
2018-12-13T23:55:25.055Z,8.17
